sensor_id;sensor_type;location;lat;lon;timestamp;P1;durP1;ratioP1;P2;durP2;ratioP2
25721;SDS011;13578;53.450;15.496;2024-02-16T00:01:48;17.75;;;10.70;;
25721;SDS011;13578;53.450;15.496;2024-02-16T00:04:48;18.17;;;10.43;;
25721;SDS011;13578;53.450;15.496;2024-02-16T00:07:49;16.88;;;10.93;;
25721;SDS011;13578;53.450;15.496;2024-02-16T00:10:49;20.15;;;11.10;;
25721;SDS011;13578;53.450;15.496;2024-02-16T00:13:50;19.98;;;11.30;;
25721;SDS011;13578;53.450;15.496;2024-02-16T00:16:51;17.35;;;10.90;;
25721;SDS011;13578;53.450;15.496;2024-02-16T00:19:55;17.65;;;10.30;;
25721;SDS011;13578;53.450;15.496;2024-02-16T00:22:56;19.77;;;9.95;;
25721;SDS011;13578;53.450;15.496;2024-02-16T00:25:56;20.17;;;11.38;;
25721;SDS011;13578;53.450;15.496;2024-02-16T00:28:57;18.08;;;11.45;;
25721;SDS011;13578;53.450;15.496;2024-02-16T00:31:57;14.50;;;10.57;;
25721;SDS011;13578;53.450;15.496;2024-02-16T00:35:01;18.13;;;11.65;;
25721;SDS011;13578;53.450;15.496;2024-02-16T00:38:02;18.75;;;10.55;;
25721;SDS011;13578;53.450;15.496;2024-02-16T00:41:02;13.93;;;9.88;;
25721;SDS011;13578;53.450;15.496;2024-02-16T00:44:04;15.55;;;10.15;;
25721;SDS011;13578;53.450;15.496;2024-02-16T00:47:05;17.63;;;10.55;;
25721;SDS011;13578;53.450;15.496;2024-02-16T00:50:06;16.48;;;10.23;;
25721;SDS011;13578;53.450;15.496;2024-02-16T00:53:09;18.42;;;10.35;;
25721;SDS011;13578;53.450;15.496;2024-02-16T00:56:10;16.35;;;10.88;;
25721;SDS011;13578;53.450;15.496;2024-02-16T00:59:11;16.75;;;10.73;;
25721;SDS011;13578;53.450;15.496;2024-02-16T01:02:12;21.50;;;11.93;;
25721;SDS011;13578;53.450;15.496;2024-02-16T01:05:12;31.08;;;11.82;;
25721;SDS011;13578;53.450;15.496;2024-02-16T01:08:13;16.40;;;11.05;;
25721;SDS011;13578;53.450;15.496;2024-02-16T01:11:13;18.67;;;11.70;;
25721;SDS011;13578;53.450;15.496;2024-02-16T01:14:14;25.38;;;11.50;;
25721;SDS011;13578;53.450;15.496;2024-02-16T01:17:15;17.92;;;11.23;;
25721;SDS011;13578;53.450;15.496;2024-02-16T01:20:16;17.90;;;11.13;;
25721;SDS011;13578;53.450;15.496;2024-02-16T01:23:16;18.30;;;10.57;;
25721;SDS011;13578;53.450;15.496;2024-02-16T01:26:17;17.67;;;11.30;;
25721;SDS011;13578;53.450;15.496;2024-02-16T01:29:17;19.58;;;11.85;;
25721;SDS011;13578;53.450;15.496;2024-02-16T01:32:18;22.80;;;11.77;;
25721;SDS011;13578;53.450;15.496;2024-02-16T01:35:19;18.88;;;11.90;;
25721;SDS011;13578;53.450;15.496;2024-02-16T01:38:19;19.13;;;12.18;;
25721;SDS011;13578;53.450;15.496;2024-02-16T01:41:23;16.98;;;10.98;;
25721;SDS011;13578;53.450;15.496;2024-02-16T01:44:24;19.85;;;11.98;;
25721;SDS011;13578;53.450;15.496;2024-02-16T01:47:24;19.20;;;11.60;;
25721;SDS011;13578;53.450;15.496;2024-02-16T01:50:25;21.17;;;12.77;;
25721;SDS011;13578;53.450;15.496;2024-02-16T01:53:26;18.42;;;11.82;;
25721;SDS011;13578;53.450;15.496;2024-02-16T01:56:27;17.90;;;12.10;;
25721;SDS011;13578;53.450;15.496;2024-02-16T01:59:29;19.88;;;12.98;;
25721;SDS011;13578;53.450;15.496;2024-02-16T02:02:29;23.25;;;12.73;;
25721;SDS011;13578;53.450;15.496;2024-02-16T02:05:31;19.52;;;13.32;;
25721;SDS011;13578;53.450;15.496;2024-02-16T02:08:33;23.35;;;12.88;;
25721;SDS011;13578;53.450;15.496;2024-02-16T02:11:33;20.23;;;13.07;;
25721;SDS011;13578;53.450;15.496;2024-02-16T02:14:34;22.20;;;12.85;;
25721;SDS011;13578;53.450;15.496;2024-02-16T02:17:35;23.42;;;13.68;;
25721;SDS011;13578;53.450;15.496;2024-02-16T02:20:36;21.58;;;12.63;;
25721;SDS011;13578;53.450;15.496;2024-02-16T02:23:36;19.00;;;13.15;;
25721;SDS011;13578;53.450;15.496;2024-02-16T02:26:37;22.58;;;13.13;;
25721;SDS011;13578;53.450;15.496;2024-02-16T02:29:39;20.90;;;12.35;;
25721;SDS011;13578;53.450;15.496;2024-02-16T02:32:40;18.48;;;12.68;;
25721;SDS011;13578;53.450;15.496;2024-02-16T02:35:42;23.30;;;12.35;;
25721;SDS011;13578;53.450;15.496;2024-02-16T02:38:43;22.98;;;12.98;;
25721;SDS011;13578;53.450;15.496;2024-02-16T02:41:44;22.77;;;12.43;;
25721;SDS011;13578;53.450;15.496;2024-02-16T02:44:45;19.98;;;13.15;;
25721;SDS011;13578;53.450;15.496;2024-02-16T02:47:50;22.87;;;13.43;;
25721;SDS011;13578;53.450;15.496;2024-02-16T02:50:51;21.90;;;12.75;;
25721;SDS011;13578;53.450;15.496;2024-02-16T02:53:52;20.70;;;12.05;;
25721;SDS011;13578;53.450;15.496;2024-02-16T02:56:53;22.35;;;13.98;;
25721;SDS011;13578;53.450;15.496;2024-02-16T03:00:00;22.27;;;13.35;;
25721;SDS011;13578;53.450;15.496;2024-02-16T03:03:06;21.20;;;12.82;;
25721;SDS011;13578;53.450;15.496;2024-02-16T03:06:07;20.67;;;12.88;;
25721;SDS011;13578;53.450;15.496;2024-02-16T03:09:07;18.40;;;13.50;;
25721;SDS011;13578;53.450;15.496;2024-02-16T03:12:08;23.85;;;13.93;;
25721;SDS011;13578;53.450;15.496;2024-02-16T03:15:09;19.73;;;13.30;;
25721;SDS011;13578;53.450;15.496;2024-02-16T03:18:09;21.77;;;13.75;;
25721;SDS011;13578;53.450;15.496;2024-02-16T03:21:12;25.90;;;13.25;;
25721;SDS011;13578;53.450;15.496;2024-02-16T03:24:16;24.33;;;13.43;;
25721;SDS011;13578;53.450;15.496;2024-02-16T03:27:17;23.77;;;13.38;;
25721;SDS011;13578;53.450;15.496;2024-02-16T03:30:17;36.70;;;14.60;;
25721;SDS011;13578;53.450;15.496;2024-02-16T03:33:18;29.25;;;15.70;;
25721;SDS011;13578;53.450;15.496;2024-02-16T03:36:20;19.65;;;12.77;;
25721;SDS011;13578;53.450;15.496;2024-02-16T03:39:21;22.27;;;13.52;;
25721;SDS011;13578;53.450;15.496;2024-02-16T03:42:22;18.92;;;13.77;;
25721;SDS011;13578;53.450;15.496;2024-02-16T03:45:23;23.35;;;13.52;;
25721;SDS011;13578;53.450;15.496;2024-02-16T03:48:24;17.23;;;12.48;;
25721;SDS011;13578;53.450;15.496;2024-02-16T03:51:25;26.90;;;14.30;;
25721;SDS011;13578;53.450;15.496;2024-02-16T03:54:25;25.63;;;15.13;;
25721;SDS011;13578;53.450;15.496;2024-02-16T03:57:26;24.38;;;15.43;;
25721;SDS011;13578;53.450;15.496;2024-02-16T04:00:27;24.67;;;15.18;;
25721;SDS011;13578;53.450;15.496;2024-02-16T04:03:27;34.15;;;18.42;;
25721;SDS011;13578;53.450;15.496;2024-02-16T04:06:28;31.55;;;17.42;;
25721;SDS011;13578;53.450;15.496;2024-02-16T04:09:29;40.53;;;19.30;;
25721;SDS011;13578;53.450;15.496;2024-02-16T04:12:29;41.63;;;22.60;;
25721;SDS011;13578;53.450;15.496;2024-02-16T04:15:30;39.50;;;24.63;;
25721;SDS011;13578;53.450;15.496;2024-02-16T04:18:31;40.65;;;24.48;;
25721;SDS011;13578;53.450;15.496;2024-02-16T04:21:31;36.78;;;24.30;;
25721;SDS011;13578;53.450;15.496;2024-02-16T04:24:32;35.03;;;19.20;;
25721;SDS011;13578;53.450;15.496;2024-02-16T04:27:33;25.33;;;16.45;;
25721;SDS011;13578;53.450;15.496;2024-02-16T04:30:33;26.20;;;17.20;;
25721;SDS011;13578;53.450;15.496;2024-02-16T04:33:35;25.85;;;16.15;;
25721;SDS011;13578;53.450;15.496;2024-02-16T04:36:35;21.73;;;15.00;;
25721;SDS011;13578;53.450;15.496;2024-02-16T04:39:36;24.17;;;15.60;;
25721;SDS011;13578;53.450;15.496;2024-02-16T04:42:36;26.33;;;15.30;;
25721;SDS011;13578;53.450;15.496;2024-02-16T04:45:37;26.83;;;15.45;;
25721;SDS011;13578;53.450;15.496;2024-02-16T04:48:38;24.27;;;15.52;;
25721;SDS011;13578;53.450;15.496;2024-02-16T04:51:39;24.52;;;15.27;;
25721;SDS011;13578;53.450;15.496;2024-02-16T04:54:40;30.60;;;15.52;;
25721;SDS011;13578;53.450;15.496;2024-02-16T04:57:41;25.30;;;15.40;;
25721;SDS011;13578;53.450;15.496;2024-02-16T05:00:41;23.27;;;13.68;;
25721;SDS011;13578;53.450;15.496;2024-02-16T05:03:42;24.88;;;14.23;;
25721;SDS011;13578;53.450;15.496;2024-02-16T05:06:43;26.80;;;15.48;;
25721;SDS011;13578;53.450;15.496;2024-02-16T05:09:46;26.77;;;14.48;;
25721;SDS011;13578;53.450;15.496;2024-02-16T05:12:46;26.02;;;15.48;;
25721;SDS011;13578;53.450;15.496;2024-02-16T05:15:47;25.90;;;14.98;;
25721;SDS011;13578;53.450;15.496;2024-02-16T05:18:48;31.60;;;15.27;;
25721;SDS011;13578;53.450;15.496;2024-02-16T05:21:49;26.40;;;15.98;;
25721;SDS011;13578;53.450;15.496;2024-02-16T05:24:53;28.42;;;16.08;;
25721;SDS011;13578;53.450;15.496;2024-02-16T05:27:53;30.98;;;17.52;;
25721;SDS011;13578;53.450;15.496;2024-02-16T05:30:54;23.67;;;15.30;;
25721;SDS011;13578;53.450;15.496;2024-02-16T05:33:55;27.67;;;15.77;;
25721;SDS011;13578;53.450;15.496;2024-02-16T05:36:56;21.63;;;14.30;;
25721;SDS011;13578;53.450;15.496;2024-02-16T05:39:56;23.52;;;14.68;;
25721;SDS011;13578;53.450;15.496;2024-02-16T05:43:08;30.08;;;14.73;;
25721;SDS011;13578;53.450;15.496;2024-02-16T05:46:12;24.33;;;14.35;;
25721;SDS011;13578;53.450;15.496;2024-02-16T05:49:16;27.75;;;14.65;;
25721;SDS011;13578;53.450;15.496;2024-02-16T05:52:17;22.73;;;13.40;;
25721;SDS011;13578;53.450;15.496;2024-02-16T05:55:17;20.83;;;14.75;;
25721;SDS011;13578;53.450;15.496;2024-02-16T05:58:21;18.85;;;12.38;;
25721;SDS011;13578;53.450;15.496;2024-02-16T06:01:23;21.83;;;14.23;;
25721;SDS011;13578;53.450;15.496;2024-02-16T06:04:23;18.58;;;12.75;;
25721;SDS011;13578;53.450;15.496;2024-02-16T06:07:24;21.73;;;12.75;;
25721;SDS011;13578;53.450;15.496;2024-02-16T06:10:25;22.30;;;12.88;;
25721;SDS011;13578;53.450;15.496;2024-02-16T06:13:26;18.60;;;12.43;;
25721;SDS011;13578;53.450;15.496;2024-02-16T06:16:26;20.00;;;13.85;;
25721;SDS011;13578;53.450;15.496;2024-02-16T06:19:27;22.98;;;12.85;;
25721;SDS011;13578;53.450;15.496;2024-02-16T06:22:29;17.63;;;12.43;;
25721;SDS011;13578;53.450;15.496;2024-02-16T06:25:31;22.60;;;12.90;;
25721;SDS011;13578;53.450;15.496;2024-02-16T06:28:32;23.13;;;12.52;;
25721;SDS011;13578;53.450;15.496;2024-02-16T06:31:33;20.35;;;11.85;;
25721;SDS011;13578;53.450;15.496;2024-02-16T06:34:33;22.40;;;13.27;;
25721;SDS011;13578;53.450;15.496;2024-02-16T06:37:34;20.40;;;12.88;;
25721;SDS011;13578;53.450;15.496;2024-02-16T06:40:35;23.35;;;12.80;;
25721;SDS011;13578;53.450;15.496;2024-02-16T06:43:35;18.02;;;12.30;;
25721;SDS011;13578;53.450;15.496;2024-02-16T06:46:36;19.55;;;12.45;;
25721;SDS011;13578;53.450;15.496;2024-02-16T06:49:36;20.92;;;12.85;;
25721;SDS011;13578;53.450;15.496;2024-02-16T06:52:37;20.60;;;11.95;;
25721;SDS011;13578;53.450;15.496;2024-02-16T06:55:38;21.63;;;12.45;;
25721;SDS011;13578;53.450;15.496;2024-02-16T06:58:38;22.13;;;13.80;;
25721;SDS011;13578;53.450;15.496;2024-02-16T07:01:39;21.45;;;13.95;;
25721;SDS011;13578;53.450;15.496;2024-02-16T07:04:40;17.52;;;11.93;;
25721;SDS011;13578;53.450;15.496;2024-02-16T07:07:41;17.98;;;11.00;;
25721;SDS011;13578;53.450;15.496;2024-02-16T07:10:41;19.58;;;12.50;;
25721;SDS011;13578;53.450;15.496;2024-02-16T07:13:42;24.77;;;13.38;;
25721;SDS011;13578;53.450;15.496;2024-02-16T07:16:43;20.52;;;12.43;;
25721;SDS011;13578;53.450;15.496;2024-02-16T07:19:43;22.77;;;13.18;;
25721;SDS011;13578;53.450;15.496;2024-02-16T07:22:44;20.17;;;13.20;;
25721;SDS011;13578;53.450;15.496;2024-02-16T07:28:50;20.02;;;12.57;;
25721;SDS011;13578;53.450;15.496;2024-02-16T07:31:51;27.25;;;14.73;;
25721;SDS011;13578;53.450;15.496;2024-02-16T07:34:52;23.23;;;13.98;;
25721;SDS011;13578;53.450;15.496;2024-02-16T07:37:53;21.55;;;14.65;;
25721;SDS011;13578;53.450;15.496;2024-02-16T07:40:54;21.02;;;14.20;;
25721;SDS011;13578;53.450;15.496;2024-02-16T07:43:55;22.70;;;14.25;;
25721;SDS011;13578;53.450;15.496;2024-02-16T07:46:56;22.42;;;14.55;;
25721;SDS011;13578;53.450;15.496;2024-02-16T07:49:57;32.33;;;14.70;;
25721;SDS011;13578;53.450;15.496;2024-02-16T07:52:58;19.90;;;12.77;;
25721;SDS011;13578;53.450;15.496;2024-02-16T07:55:59;22.90;;;13.25;;
25721;SDS011;13578;53.450;15.496;2024-02-16T07:58:59;22.70;;;13.85;;
25721;SDS011;13578;53.450;15.496;2024-02-16T08:02:00;21.75;;;13.77;;
25721;SDS011;13578;53.450;15.496;2024-02-16T08:05:03;23.65;;;13.35;;
25721;SDS011;13578;53.450;15.496;2024-02-16T08:15:59;23.67;;;12.68;;
25721;SDS011;13578;53.450;15.496;2024-02-16T08:18:59;20.52;;;11.82;;
25721;SDS011;13578;53.450;15.496;2024-02-16T08:22:00;19.55;;;11.18;;
25721;SDS011;13578;53.450;15.496;2024-02-16T08:25:01;21.95;;;12.07;;
25721;SDS011;13578;53.450;15.496;2024-02-16T08:28:02;18.88;;;11.95;;
25721;SDS011;13578;53.450;15.496;2024-02-16T08:31:03;20.52;;;11.63;;
25721;SDS011;13578;53.450;15.496;2024-02-16T08:34:03;19.42;;;10.85;;
25721;SDS011;13578;53.450;15.496;2024-02-16T08:37:07;18.85;;;10.82;;
25721;SDS011;13578;53.450;15.496;2024-02-16T08:40:13;19.45;;;10.15;;
25721;SDS011;13578;53.450;15.496;2024-02-16T08:43:14;20.08;;;10.68;;
25721;SDS011;13578;53.450;15.496;2024-02-16T08:46:15;19.40;;;10.65;;
25721;SDS011;13578;53.450;15.496;2024-02-16T08:49:16;16.70;;;10.55;;
25721;SDS011;13578;53.450;15.496;2024-02-16T08:52:16;22.05;;;9.70;;
25721;SDS011;13578;53.450;15.496;2024-02-16T08:55:17;16.27;;;9.10;;
25721;SDS011;13578;53.450;15.496;2024-02-16T08:58:36;19.42;;;9.27;;
25721;SDS011;13578;53.450;15.496;2024-02-16T09:05:34;18.15;;;7.95;;
25721;SDS011;13578;53.450;15.496;2024-02-16T09:08:34;14.68;;;7.57;;
25721;SDS011;13578;53.450;15.496;2024-02-16T09:11:35;12.52;;;6.65;;
25721;SDS011;13578;53.450;15.496;2024-02-16T09:14:35;10.68;;;6.85;;
25721;SDS011;13578;53.450;15.496;2024-02-16T09:17:36;9.68;;;5.50;;
25721;SDS011;13578;53.450;15.496;2024-02-16T09:20:37;10.05;;;4.95;;
25721;SDS011;13578;53.450;15.496;2024-02-16T09:23:37;11.38;;;5.43;;
25721;SDS011;13578;53.450;15.496;2024-02-16T09:26:38;10.98;;;5.50;;
25721;SDS011;13578;53.450;15.496;2024-02-16T09:29:39;9.63;;;5.05;;
25721;SDS011;13578;53.450;15.496;2024-02-16T09:32:39;8.23;;;4.95;;
25721;SDS011;13578;53.450;15.496;2024-02-16T09:35:42;9.90;;;5.25;;
25721;SDS011;13578;53.450;15.496;2024-02-16T09:42:28;7.80;;;4.38;;
25721;SDS011;13578;53.450;15.496;2024-02-16T09:45:29;16.08;;;5.45;;
25721;SDS011;13578;53.450;15.496;2024-02-16T09:48:31;7.47;;;4.45;;
25721;SDS011;13578;53.450;15.496;2024-02-16T09:51:35;9.68;;;4.88;;
25721;SDS011;13578;53.450;15.496;2024-02-16T09:54:36;6.22;;;4.03;;
25721;SDS011;13578;53.450;15.496;2024-02-16T09:57:38;8.77;;;4.03;;
25721;SDS011;13578;53.450;15.496;2024-02-16T10:00:39;5.88;;;3.65;;
25721;SDS011;13578;53.450;15.496;2024-02-16T10:03:43;8.90;;;3.92;;
25721;SDS011;13578;53.450;15.496;2024-02-16T10:06:46;7.88;;;4.28;;
25721;SDS011;13578;53.450;15.496;2024-02-16T10:09:48;6.53;;;3.80;;
25721;SDS011;13578;53.450;15.496;2024-02-16T10:12:49;7.07;;;3.78;;
25721;SDS011;13578;53.450;15.496;2024-02-16T10:15:50;5.68;;;3.60;;
25721;SDS011;13578;53.450;15.496;2024-02-16T10:18:50;7.10;;;3.35;;
25721;SDS011;13578;53.450;15.496;2024-02-16T10:25:38;5.85;;;3.33;;
25721;SDS011;13578;53.450;15.496;2024-02-16T10:28:42;6.68;;;3.47;;
25721;SDS011;13578;53.450;15.496;2024-02-16T10:31:43;8.63;;;3.30;;
25721;SDS011;13578;53.450;15.496;2024-02-16T10:34:45;7.43;;;3.65;;
25721;SDS011;13578;53.450;15.496;2024-02-16T10:37:47;4.50;;;2.60;;
25721;SDS011;13578;53.450;15.496;2024-02-16T10:40:48;5.05;;;2.70;;
25721;SDS011;13578;53.450;15.496;2024-02-16T10:43:50;6.13;;;2.78;;
25721;SDS011;13578;53.450;15.496;2024-02-16T10:46:53;4.68;;;2.70;;
25721;SDS011;13578;53.450;15.496;2024-02-16T10:49:56;3.95;;;2.25;;
25721;SDS011;13578;53.450;15.496;2024-02-16T10:52:57;5.25;;;2.67;;
25721;SDS011;13578;53.450;15.496;2024-02-16T10:59:03;5.70;;;2.20;;
25721;SDS011;13578;53.450;15.496;2024-02-16T11:02:05;4.22;;;2.53;;
25721;SDS011;13578;53.450;15.496;2024-02-16T11:05:07;5.10;;;3.22;;
25721;SDS011;13578;53.450;15.496;2024-02-16T11:08:12;4.47;;;2.30;;
25721;SDS011;13578;53.450;15.496;2024-02-16T11:11:22;3.83;;;2.47;;
25721;SDS011;13578;53.450;15.496;2024-02-16T11:14:23;14.52;;;5.65;;
25721;SDS011;13578;53.450;15.496;2024-02-16T11:17:26;4.75;;;2.72;;
25721;SDS011;13578;53.450;15.496;2024-02-16T11:20:35;3.05;;;2.05;;
25721;SDS011;13578;53.450;15.496;2024-02-16T11:23:37;3.55;;;2.17;;
25721;SDS011;13578;53.450;15.496;2024-02-16T11:26:44;6.53;;;2.30;;
25721;SDS011;13578;53.450;15.496;2024-02-16T11:29:45;3.78;;;1.70;;
25721;SDS011;13578;53.450;15.496;2024-02-16T11:32:46;5.78;;;2.05;;
25721;SDS011;13578;53.450;15.496;2024-02-16T11:35:57;4.28;;;2.17;;
25721;SDS011;13578;53.450;15.496;2024-02-16T11:39:01;4.07;;;2.00;;
25721;SDS011;13578;53.450;15.496;2024-02-16T11:42:03;4.00;;;1.95;;
25721;SDS011;13578;53.450;15.496;2024-02-16T11:45:04;3.55;;;2.03;;
25721;SDS011;13578;53.450;15.496;2024-02-16T11:48:06;5.22;;;2.25;;
25721;SDS011;13578;53.450;15.496;2024-02-16T11:51:07;10.52;;;2.42;;
25721;SDS011;13578;53.450;15.496;2024-02-16T11:54:09;5.13;;;2.20;;
25721;SDS011;13578;53.450;15.496;2024-02-16T11:57:09;3.58;;;1.83;;
25721;SDS011;13578;53.450;15.496;2024-02-16T12:00:10;4.75;;;2.13;;
25721;SDS011;13578;53.450;15.496;2024-02-16T12:03:21;3.30;;;1.92;;
25721;SDS011;13578;53.450;15.496;2024-02-16T12:06:22;4.03;;;2.22;;
25721;SDS011;13578;53.450;15.496;2024-02-16T12:09:23;4.15;;;2.25;;
25721;SDS011;13578;53.450;15.496;2024-02-16T12:12:27;5.55;;;2.30;;
25721;SDS011;13578;53.450;15.496;2024-02-16T12:15:28;3.60;;;2.10;;
25721;SDS011;13578;53.450;15.496;2024-02-16T12:18:29;2.83;;;1.90;;
25721;SDS011;13578;53.450;15.496;2024-02-16T12:21:30;3.90;;;2.20;;
25721;SDS011;13578;53.450;15.496;2024-02-16T12:24:31;4.05;;;2.30;;
25721;SDS011;13578;53.450;15.496;2024-02-16T12:27:31;4.30;;;2.28;;
25721;SDS011;13578;53.450;15.496;2024-02-16T12:30:32;5.70;;;2.60;;
25721;SDS011;13578;53.450;15.496;2024-02-16T12:33:33;6.28;;;2.60;;
25721;SDS011;13578;53.450;15.496;2024-02-16T12:36:34;6.05;;;2.92;;
25721;SDS011;13578;53.450;15.496;2024-02-16T12:39:35;7.50;;;2.83;;
25721;SDS011;13578;53.450;15.496;2024-02-16T12:42:35;6.35;;;3.58;;
25721;SDS011;13578;53.450;15.496;2024-02-16T12:45:36;8.32;;;3.65;;
25721;SDS011;13578;53.450;15.496;2024-02-16T12:48:37;6.53;;;3.47;;
25721;SDS011;13578;53.450;15.496;2024-02-16T12:51:38;5.90;;;2.97;;
25721;SDS011;13578;53.450;15.496;2024-02-16T12:54:39;5.47;;;3.17;;
25721;SDS011;13578;53.450;15.496;2024-02-16T12:57:39;8.43;;;3.95;;
25721;SDS011;13578;53.450;15.496;2024-02-16T13:00:40;10.43;;;3.67;;
25721;SDS011;13578;53.450;15.496;2024-02-16T13:03:41;6.70;;;3.67;;
25721;SDS011;13578;53.450;15.496;2024-02-16T13:06:41;7.40;;;3.90;;
25721;SDS011;13578;53.450;15.496;2024-02-16T13:09:42;6.25;;;2.60;;
25721;SDS011;13578;53.450;15.496;2024-02-16T13:12:43;4.72;;;3.00;;
25721;SDS011;13578;53.450;15.496;2024-02-16T13:15:43;8.30;;;3.00;;
25721;SDS011;13578;53.450;15.496;2024-02-16T13:18:44;6.53;;;3.60;;
25721;SDS011;13578;53.450;15.496;2024-02-16T13:21:44;7.38;;;3.03;;
25721;SDS011;13578;53.450;15.496;2024-02-16T13:24:45;3.88;;;2.78;;
25721;SDS011;13578;53.450;15.496;2024-02-16T13:27:46;5.90;;;3.13;;
25721;SDS011;13578;53.450;15.496;2024-02-16T13:30:46;8.18;;;3.15;;
25721;SDS011;13578;53.450;15.496;2024-02-16T13:33:47;6.80;;;3.30;;
25721;SDS011;13578;53.450;15.496;2024-02-16T13:36:48;8.20;;;3.58;;
25721;SDS011;13578;53.450;15.496;2024-02-16T13:39:49;6.82;;;3.78;;
25721;SDS011;13578;53.450;15.496;2024-02-16T13:42:51;5.43;;;3.10;;
25721;SDS011;13578;53.450;15.496;2024-02-16T13:45:52;8.80;;;3.50;;
25721;SDS011;13578;53.450;15.496;2024-02-16T13:48:54;6.00;;;2.97;;
25721;SDS011;13578;53.450;15.496;2024-02-16T13:51:56;5.78;;;3.28;;
25721;SDS011;13578;53.450;15.496;2024-02-16T13:54:58;4.70;;;2.58;;
25721;SDS011;13578;53.450;15.496;2024-02-16T13:57:59;8.35;;;3.45;;
25721;SDS011;13578;53.450;15.496;2024-02-16T14:01:00;7.03;;;4.07;;
25721;SDS011;13578;53.450;15.496;2024-02-16T14:04:03;6.43;;;3.38;;
25721;SDS011;13578;53.450;15.496;2024-02-16T14:07:04;7.50;;;3.75;;
25721;SDS011;13578;53.450;15.496;2024-02-16T14:10:05;10.55;;;3.63;;
25721;SDS011;13578;53.450;15.496;2024-02-16T14:13:06;7.97;;;3.70;;
25721;SDS011;13578;53.450;15.496;2024-02-16T14:16:07;6.72;;;3.20;;
25721;SDS011;13578;53.450;15.496;2024-02-16T14:19:10;6.85;;;3.42;;
25721;SDS011;13578;53.450;15.496;2024-02-16T14:22:10;6.88;;;4.03;;
25721;SDS011;13578;53.450;15.496;2024-02-16T14:25:12;6.32;;;3.63;;
25721;SDS011;13578;53.450;15.496;2024-02-16T14:28:14;8.48;;;3.10;;
25721;SDS011;13578;53.450;15.496;2024-02-16T14:31:15;7.40;;;3.47;;
25721;SDS011;13578;53.450;15.496;2024-02-16T14:34:16;6.95;;;3.35;;
25721;SDS011;13578;53.450;15.496;2024-02-16T14:37:17;6.15;;;3.78;;
25721;SDS011;13578;53.450;15.496;2024-02-16T14:40:18;7.57;;;3.55;;
25721;SDS011;13578;53.450;15.496;2024-02-16T14:43:18;7.00;;;3.22;;
25721;SDS011;13578;53.450;15.496;2024-02-16T14:46:19;10.82;;;4.57;;
25721;SDS011;13578;53.450;15.496;2024-02-16T14:49:20;5.75;;;3.15;;
25721;SDS011;13578;53.450;15.496;2024-02-16T14:52:24;7.95;;;3.88;;
25721;SDS011;13578;53.450;15.496;2024-02-16T14:55:25;7.32;;;3.78;;
25721;SDS011;13578;53.450;15.496;2024-02-16T14:58:25;7.47;;;3.65;;
25721;SDS011;13578;53.450;15.496;2024-02-16T15:01:26;7.57;;;4.03;;
25721;SDS011;13578;53.450;15.496;2024-02-16T15:04:27;9.15;;;3.95;;
25721;SDS011;13578;53.450;15.496;2024-02-16T15:07:28;7.03;;;3.95;;
25721;SDS011;13578;53.450;15.496;2024-02-16T15:10:28;8.15;;;4.18;;
25721;SDS011;13578;53.450;15.496;2024-02-16T15:13:29;7.45;;;3.97;;
25721;SDS011;13578;53.450;15.496;2024-02-16T15:16:30;6.82;;;4.20;;
25721;SDS011;13578;53.450;15.496;2024-02-16T15:19:31;8.85;;;4.47;;
25721;SDS011;13578;53.450;15.496;2024-02-16T15:22:32;10.43;;;4.28;;
25721;SDS011;13578;53.450;15.496;2024-02-16T15:25:33;11.07;;;4.82;;
25721;SDS011;13578;53.450;15.496;2024-02-16T15:28:33;8.45;;;4.20;;
25721;SDS011;13578;53.450;15.496;2024-02-16T15:31:34;8.23;;;4.22;;
25721;SDS011;13578;53.450;15.496;2024-02-16T15:34:35;6.97;;;4.13;;
25721;SDS011;13578;53.450;15.496;2024-02-16T15:37:35;6.90;;;4.20;;
25721;SDS011;13578;53.450;15.496;2024-02-16T15:40:36;9.15;;;4.68;;
25721;SDS011;13578;53.450;15.496;2024-02-16T15:43:36;11.80;;;4.60;;
25721;SDS011;13578;53.450;15.496;2024-02-16T15:46:37;7.45;;;3.88;;
25721;SDS011;13578;53.450;15.496;2024-02-16T15:49:41;7.53;;;4.55;;
25721;SDS011;13578;53.450;15.496;2024-02-16T15:52:42;9.00;;;5.22;;
25721;SDS011;13578;53.450;15.496;2024-02-16T15:55:42;6.55;;;4.07;;
25721;SDS011;13578;53.450;15.496;2024-02-16T15:58:43;7.55;;;4.25;;
25721;SDS011;13578;53.450;15.496;2024-02-16T16:01:44;8.57;;;4.47;;
25721;SDS011;13578;53.450;15.496;2024-02-16T16:04:47;14.60;;;5.28;;
25721;SDS011;13578;53.450;15.496;2024-02-16T16:07:47;7.35;;;4.97;;
25721;SDS011;13578;53.450;15.496;2024-02-16T16:10:48;9.80;;;5.40;;
25721;SDS011;13578;53.450;15.496;2024-02-16T16:13:49;9.55;;;5.05;;
25721;SDS011;13578;53.450;15.496;2024-02-16T16:16:49;10.52;;;5.13;;
25721;SDS011;13578;53.450;15.496;2024-02-16T16:19:53;8.75;;;4.97;;
25721;SDS011;13578;53.450;15.496;2024-02-16T16:22:54;10.48;;;4.78;;
25721;SDS011;13578;53.450;15.496;2024-02-16T16:25:55;11.32;;;4.95;;
25721;SDS011;13578;53.450;15.496;2024-02-16T16:28:56;9.82;;;5.80;;
25721;SDS011;13578;53.450;15.496;2024-02-16T16:31:57;8.18;;;4.85;;
25721;SDS011;13578;53.450;15.496;2024-02-16T16:34:59;7.65;;;4.38;;
25721;SDS011;13578;53.450;15.496;2024-02-16T16:38:00;7.95;;;4.85;;
25721;SDS011;13578;53.450;15.496;2024-02-16T16:41:00;7.95;;;5.20;;
25721;SDS011;13578;53.450;15.496;2024-02-16T16:44:02;10.15;;;5.70;;
25721;SDS011;13578;53.450;15.496;2024-02-16T16:47:02;10.57;;;5.07;;
25721;SDS011;13578;53.450;15.496;2024-02-16T16:50:03;11.45;;;5.65;;
25721;SDS011;13578;53.450;15.496;2024-02-16T16:53:04;11.32;;;4.85;;
25721;SDS011;13578;53.450;15.496;2024-02-16T16:56:05;9.65;;;5.20;;
25721;SDS011;13578;53.450;15.496;2024-02-16T16:59:07;9.18;;;5.68;;
25721;SDS011;13578;53.450;15.496;2024-02-16T17:02:08;8.95;;;5.03;;
25721;SDS011;13578;53.450;15.496;2024-02-16T17:05:09;13.15;;;5.25;;
25721;SDS011;13578;53.450;15.496;2024-02-16T17:08:09;8.98;;;5.25;;
25721;SDS011;13578;53.450;15.496;2024-02-16T17:11:10;11.40;;;5.85;;
25721;SDS011;13578;53.450;15.496;2024-02-16T17:14:11;14.57;;;5.57;;
25721;SDS011;13578;53.450;15.496;2024-02-16T17:17:12;10.50;;;5.72;;
25721;SDS011;13578;53.450;15.496;2024-02-16T17:20:12;11.00;;;5.97;;
25721;SDS011;13578;53.450;15.496;2024-02-16T17:23:13;12.05;;;5.28;;
25721;SDS011;13578;53.450;15.496;2024-02-16T17:26:14;13.35;;;5.93;;
25721;SDS011;13578;53.450;15.496;2024-02-16T17:29:14;8.10;;;5.05;;
25721;SDS011;13578;53.450;15.496;2024-02-16T17:32:15;11.85;;;5.28;;
25721;SDS011;13578;53.450;15.496;2024-02-16T17:35:16;12.10;;;5.63;;
25721;SDS011;13578;53.450;15.496;2024-02-16T17:38:16;9.70;;;5.05;;
25721;SDS011;13578;53.450;15.496;2024-02-16T17:41:20;13.93;;;5.93;;
25721;SDS011;13578;53.450;15.496;2024-02-16T17:44:22;13.02;;;6.35;;
25721;SDS011;13578;53.450;15.496;2024-02-16T17:47:22;11.48;;;4.88;;
25721;SDS011;13578;53.450;15.496;2024-02-16T17:50:24;10.55;;;5.68;;
25721;SDS011;13578;53.450;15.496;2024-02-16T17:53:24;12.98;;;6.15;;
25721;SDS011;13578;53.450;15.496;2024-02-16T17:56:25;11.35;;;5.72;;
25721;SDS011;13578;53.450;15.496;2024-02-16T17:59:25;10.07;;;5.20;;
25721;SDS011;13578;53.450;15.496;2024-02-16T18:02:26;10.88;;;5.10;;
25721;SDS011;13578;53.450;15.496;2024-02-16T18:05:28;13.25;;;6.28;;